createdAt,value
2018-11-20T00:00:27.856Z,101761.52
2018-11-20T00:03:14.554Z,101760.58
2018-11-20T00:06:18.069Z,101758.70
2018-11-20T00:09:04.357Z,101761.41
2018-11-20T00:11:51.280Z,101757.42
2018-11-20T00:14:48.341Z,101765.89
2018-11-20T00:17:26.249Z,101756.95
2018-11-20T00:20:29.596Z,101761.37
2018-11-20T00:23:14.007Z,101763.25
2018-11-20T00:26:03.749Z,101765.86
2018-11-20T00:28:57.341Z,101757.83
2018-11-20T00:31:58.102Z,101754.63
2018-11-20T00:34:46.477Z,101755.53
2018-11-20T00:37:26.683Z,101756.70
2018-11-20T00:40:14.216Z,101754.66
2018-11-20T00:43:00.800Z,101749.42
2018-11-20T00:46:00.921Z,101755.70
2018-11-20T00:49:01.314Z,101752.30
2018-11-20T00:51:47.786Z,101743.27
2018-11-20T00:54:38.761Z,101739.58
2018-11-20T00:57:15.147Z,101733.25
2018-11-20T01:00:05.107Z,101734.84
2018-11-20T01:03:11.571Z,101738.51
2018-11-20T01:06:05.628Z,101724.78
2018-11-20T01:08:52.635Z,101727.14
2018-11-20T01:11:29.978Z,101720.23
2018-11-20T01:14:26.911Z,101722.28
2018-11-20T01:17:09.522Z,101714.85
2018-11-20T01:19:55.133Z,101717.83
2018-11-20T01:22:46.823Z,101702.59
2018-11-20T01:25:48.635Z,101717.49
2018-11-20T01:28:39.599Z,101713.28
2018-11-20T01:31:47.677Z,101705.70
2018-11-20T01:34:24.703Z,101707.66
2018-11-20T01:37:31.159Z,101696.75
2018-11-20T01:40:19.410Z,101697.61
2018-11-20T01:43:10.448Z,101695.81
2018-11-20T01:46:04.615Z,101694.22
2018-11-20T01:48:44.756Z,101684.69
2018-11-20T01:51:44.722Z,101683.68
2018-11-20T01:54:34.659Z,101682.12
2018-11-20T01:57:34.727Z,101679.55
2018-11-20T02:00:22.940Z,101674.30
2018-11-20T02:03:16.300Z,101672.84
2018-11-20T02:06:01.253Z,101672.67
2018-11-20T02:08:52.438Z,101672.89
2018-11-20T02:11:52.494Z,101667.46
2018-11-20T02:14:48.329Z,101659.76
2018-11-20T02:17:41.983Z,101666.77
2018-11-20T02:20:27.681Z,101663.66
2018-11-20T02:23:14.715Z,101668.91
2018-11-20T02:26:02.965Z,101663.20
2018-11-20T02:28:49.601Z,101652.75
2018-11-20T02:31:36.410Z,101667.89
2018-11-20T02:34:25.136Z,101661.64
2018-11-20T02:37:12.096Z,101653.75
2018-11-20T02:40:03.760Z,101648.79
2018-11-20T02:42:43.891Z,101640.04
2018-11-20T02:45:37.836Z,101641.64
2018-11-20T02:48:32.117Z,101642.02
2018-11-20T02:51:19.020Z,101636.81
2018-11-20T02:54:03.214Z,101630.11
2018-11-20T02:56:51.348Z,101621.36
2018-11-20T02:59:55.034Z,101624.03
2018-11-20T03:02:42.078Z,101613.57
2018-11-20T03:05:28.745Z,101610.03
2018-11-20T03:08:15.557Z,101612.12
2018-11-20T03:11:06.542Z,101594.31
2018-11-20T03:13:53.157Z,101580.11
2018-11-20T03:16:39.850Z,101592.87
2018-11-20T03:19:20.917Z,101591.77
2018-11-20T03:22:03.192Z,101586.64
2018-11-20T03:24:49.255Z,101578.44
2018-11-20T03:27:52.738Z,101577.92
2018-11-20T03:31:12.167Z,101580.89
2018-11-20T03:34:01.678Z,101572.39
2018-11-20T03:36:55.739Z,101573.69
2018-11-20T03:39:42.573Z,101563.66
2018-11-20T03:42:39.551Z,101559.77
2018-11-20T03:45:39.737Z,101554.56
2018-11-20T03:48:33.583Z,101550.02
2018-11-20T03:51:15.243Z,101559.31
2018-11-20T03:54:10.075Z,101561.14
2018-11-20T03:56:55.587Z,101555.87
2018-11-20T03:59:55.642Z,101559.70
2018-11-20T04:02:49.702Z,101554.08
2018-11-20T04:05:40.585Z,101554.73
2018-11-20T04:08:24.833Z,101558.52
2018-11-20T04:11:24.847Z,101556.44
2018-11-20T04:14:07.668Z,101554.35
2018-11-20T04:16:52.109Z,101548.73
2018-11-20T04:19:43.159Z,101566.66
2018-11-20T04:22:30.325Z,101561.45
2018-11-20T04:25:15.630Z,101563.27
2018-11-20T04:28:09.654Z,101560.39
2018-11-20T04:31:36.661Z,101560.39
2018-11-20T04:34:28.383Z,101564.18
2018-11-20T04:37:24.596Z,101560.08
2018-11-20T04:40:15.475Z,101567.89
2018-11-20T04:43:05.793Z,101573.58
2018-11-20T04:45:52.543Z,101562.14
2018-11-20T04:48:31.941Z,101566.33
2018-11-20T04:51:26.012Z,101566.19
2018-11-20T04:54:26.459Z,101574.86
2018-11-20T04:57:13.145Z,101582.64
2018-11-20T05:03:22.136Z,101578.45
2018-11-20T05:06:13.772Z,101574.21
2018-11-20T05:08:51.348Z,101578.06
2018-11-20T05:11:40.220Z,101576.23
2018-11-20T05:14:35.524Z,101581.95
2018-11-20T05:17:39.827Z,101578.52
2018-11-20T05:20:43.452Z,101578.34
2018-11-20T05:23:30.468Z,101573.34
2018-11-20T05:26:30.929Z,101573.95
2018-11-20T05:29:18.271Z,101576.99
2018-11-20T05:32:05.334Z,101581.78
2018-11-20T05:34:51.632Z,101582.48
2018-11-20T05:37:52.388Z,101583.31
2018-11-20T05:41:01.505Z,101587.38
2018-11-20T05:43:52.625Z,101600.01
2018-11-20T05:46:59.716Z,101600.91
2018-11-20T05:49:47.131Z,101595.31
2018-11-20T05:52:38.450Z,101592.87
2018-11-20T05:55:28.788Z,101599.42
2018-11-20T05:58:20.568Z,101600.12
2018-11-20T06:01:05.430Z,101596.54
2018-11-20T06:03:53.019Z,101602.02
2018-11-20T06:06:43.060Z,101601.02
2018-11-20T06:09:38.045Z,101598.41
2018-11-20T06:12:27.002Z,101607.09
2018-11-20T06:15:27.573Z,101607.47
2018-11-20T06:18:16.832Z,101607.78
2018-11-20T06:21:12.097Z,101608.12
2018-11-20T06:24:00.367Z,101607.27
2018-11-20T06:26:50.044Z,101613.02
2018-11-20T06:29:42.172Z,101602.96
2018-11-20T06:32:39.566Z,101609.69
2018-11-20T06:35:26.855Z,101612.75
2018-11-20T06:38:18.213Z,101616.19
2018-11-20T06:41:17.440Z,101606.54
2018-11-20T06:44:12.069Z,101597.33
2018-11-20T06:47:03.594Z,101595.67
2018-11-20T06:49:50.603Z,101606.61
2018-11-20T06:52:37.724Z,101605.11
2018-11-20T06:55:28.125Z,101614.45
2018-11-20T06:58:16.662Z,101604.31
2018-11-20T07:01:20.628Z,101608.34
2018-11-20T07:04:12.433Z,101606.43
2018-11-20T07:07:01.119Z,101605.36
2018-11-20T07:09:41.416Z,101605.63
2018-11-20T07:12:30.083Z,101614.73
2018-11-20T07:15:17.497Z,101613.09
2018-11-20T07:18:04.719Z,101607.64
2018-11-20T07:20:52.045Z,101602.02
2018-11-20T07:23:43.353Z,101602.78
2018-11-20T07:26:34.675Z,101598.55
2018-11-20T07:29:35.199Z,101591.70
2018-11-20T07:32:32.774Z,101585.50
2018-11-20T07:35:21.324Z,101580.02
2018-11-20T07:38:21.931Z,101577.16
2018-11-20T07:41:09.284Z,101575.94
2018-11-20T07:43:56.512Z,101574.86
2018-11-20T07:46:43.521Z,101579.66
2018-11-20T07:49:30.634Z,101571.67
2018-11-20T07:52:25.064Z,101576.50
2018-11-20T07:55:28.840Z,101571.44
2018-11-20T07:58:29.365Z,101568.89
2018-11-20T08:01:21.050Z,101570.15
2018-11-20T08:04:08.418Z,101572.50
2018-11-20T08:06:55.636Z,101559.25
2018-11-20T08:09:42.762Z,101558.89
2018-11-20T08:12:36.978Z,101555.40
2018-11-20T08:15:18.760Z,101558.80
2018-11-20T08:18:16.371Z,101556.30
2018-11-20T08:21:11.160Z,101557.40
2018-11-20T08:24:08.450Z,101550.27
2018-11-20T08:27:01.473Z,101547.54
2018-11-20T08:29:50.046Z,101548.86
2018-11-20T08:32:37.275Z,101544.91
2018-11-20T08:35:29.009Z,101544.39
2018-11-20T08:38:20.421Z,101542.09
2018-11-20T08:41:20.745Z,101548.50
2018-11-20T08:44:08.216Z,101543.67
2018-11-20T08:47:02.356Z,101539.44
2018-11-20T08:50:02.886Z,101545.13
2018-11-20T08:52:44.167Z,101543.20
2018-11-20T08:55:32.812Z,101544.39
2018-11-20T08:58:20.135Z,101536.69
2018-11-20T09:01:14.612Z,101534.55
2018-11-20T09:04:03.185Z,101539.38
2018-11-20T09:07:06.985Z,101537.37
2018-11-20T09:10:04.820Z,101534.53
2018-11-20T09:12:53.212Z,101529.95
2018-11-20T09:15:59.624Z,101523.39
2018-11-20T09:18:46.795Z,101526.27
2018-11-20T09:21:35.331Z,101531.79
2018-11-20T09:24:31.593Z,101533.45
2018-11-20T09:27:32.217Z,101522.61
2018-11-20T09:30:20.735Z,101519.75
2018-11-20T09:33:06.355Z,101515.21
2018-11-20T09:35:53.412Z,101509.42
2018-11-20T09:38:53.202Z,101506.86
2018-11-20T09:41:57.200Z,101500.83
2018-11-20T09:45:06.437Z,101498.48
2018-11-20T09:47:54.986Z,101486.41
2018-11-20T09:50:58.793Z,101479.11
2018-11-20T09:53:50.110Z,101472.76
2018-11-20T09:56:35.783Z,101464.20
2018-11-20T09:59:30.302Z,101457.13
2018-11-20T10:02:18.836Z,101462.23
2018-11-20T10:05:25.818Z,101453.52
2018-11-20T10:08:06.373Z,101458.79
2018-11-20T10:10:47.846Z,101466.55
2018-11-20T10:13:36.052Z,101469.41
2018-11-20T10:16:23.922Z,101456.87
2018-11-20T10:19:15.267Z,101470.67
2018-11-20T10:22:06.533Z,101471.72
2018-11-20T10:25:04.368Z,101472.91
2018-11-20T10:27:58.880Z,101461.03
2018-11-20T10:30:59.343Z,101449.92
2018-11-20T10:33:50.437Z,101444.25
2018-11-20T10:36:41.910Z,101452.60
2018-11-20T10:39:29.229Z,101442.44
2018-11-20T10:42:26.801Z,101447.80
2018-11-20T10:45:21.229Z,101443.95
2018-11-20T10:48:12.490Z,101455.67
2018-11-20T10:50:59.859Z,101449.31
2018-11-20T10:53:48.473Z,101452.91
2018-11-20T10:56:35.586Z,101438.62
2018-11-20T10:59:23.059Z,101445.45
2018-11-20T11:02:10.436Z,101427.85
2018-11-20T11:04:58.005Z,101430.63
2018-11-20T11:07:52.572Z,101436.87
2018-11-20T11:10:31.932Z,101424.77
2018-11-20T11:13:19.012Z,101431.70
2018-11-20T11:16:10.297Z,101431.17
2018-11-20T11:19:10.566Z,101430.03
2018-11-20T11:21:59.204Z,101423.72
2018-11-20T11:24:54.097Z,101429.42
2018-11-20T11:27:41.090Z,101424.61
2018-11-20T11:30:29.982Z,101430.19
2018-11-20T11:33:17.199Z,101436.68
2018-11-20T11:36:04.426Z,101429.13
2018-11-20T11:39:02.097Z,101429.81
2018-11-20T11:41:56.075Z,101429.75
2018-11-20T11:44:43.482Z,101427.84
2018-11-20T11:47:32.043Z,101422.73
2018-11-20T11:50:20.597Z,101418.38
2018-11-20T11:53:11.981Z,101420.70
2018-11-20T11:55:58.927Z,101418.73
2018-11-20T11:58:59.808Z,101419.94
2018-11-20T12:04:29.083Z,101412.88
2018-11-20T12:07:20.707Z,101416.58
2018-11-20T12:10:09.262Z,101412.89
2018-11-20T12:12:56.290Z,101406.40
2018-11-20T12:15:42.938Z,101397.68
2018-11-20T12:18:18.692Z,101402.34
2018-11-20T12:21:16.193Z,101394.52
2018-11-20T12:24:04.714Z,101396.63
2018-11-20T12:27:05.422Z,101387.97
2018-11-20T12:29:50.247Z,101380.91
2018-11-20T12:32:32.965Z,101371.03
2018-11-20T12:35:33.282Z,101378.41
2018-11-20T12:38:17.282Z,101385.25
2018-11-20T12:41:09.729Z,101378.42
2018-11-20T12:44:05.942Z,101370.75
2018-11-20T12:46:51.280Z,101369.89
2018-11-20T12:49:34.408Z,101380.07
2018-11-20T12:52:23.705Z,101364.48
2018-11-20T12:55:07.825Z,101353.06
2018-11-20T12:57:55.373Z,101359.52
2018-11-20T13:00:49.859Z,101346.20
2018-11-20T13:03:47.135Z,101355.00
2018-11-20T13:06:38.631Z,101358.39
2018-11-20T13:09:35.770Z,101346.72
2018-11-20T13:12:42.657Z,101345.63
2018-11-20T13:15:30.078Z,101351.31
2018-11-20T13:18:24.363Z,101344.64
2018-11-20T13:21:15.910Z,101342.30
2018-11-20T13:24:03.208Z,101336.36
2018-11-20T13:26:53.352Z,101333.03
2018-11-20T13:29:40.577Z,101337.47
2018-11-20T13:32:23.626Z,101337.25
2018-11-20T13:35:04.071Z,101326.48
2018-11-20T13:38:00.684Z,101323.50
2018-11-20T13:41:31.679Z,101309.50
2018-11-20T13:44:19.720Z,101323.78
2018-11-20T13:47:17.391Z,101332.36
2018-11-20T13:50:14.852Z,101313.03
2018-11-20T13:53:12.432Z,101315.97
2018-11-20T13:55:59.293Z,101303.88
2018-11-20T13:58:46.651Z,101299.19
2018-11-20T14:01:30.489Z,101290.62
2018-11-20T14:04:09.888Z,101288.59
2018-11-20T14:06:57.137Z,101284.16
2018-11-20T14:09:51.587Z,101269.88
2018-11-20T14:12:49.227Z,101269.88
2018-11-20T14:15:52.913Z,101265.30
2018-11-20T14:18:38.697Z,101264.69
2018-11-20T14:21:30.318Z,101250.53
2018-11-20T14:24:17.850Z,101249.48
2018-11-20T14:27:18.318Z,101243.71
2018-11-20T14:29:54.846Z,101252.06
2018-11-20T14:33:01.524Z,101256.79
2018-11-20T14:36:05.025Z,101239.81
2018-11-20T14:38:56.510Z,101241.77
2018-11-20T14:41:55.958Z,101243.17
2018-11-20T14:44:47.066Z,101238.07
2018-11-20T14:47:34.387Z,101244.02
2018-11-20T14:50:25.910Z,101219.48
2018-11-20T14:53:20.175Z,101234.91
2018-11-20T14:56:14.437Z,101235.36
2018-11-20T14:59:21.244Z,101242.65
2018-11-20T15:02:08.384Z,101243.92
2018-11-20T15:04:55.910Z,101247.30
2018-11-20T15:07:45.264Z,101253.39
2018-11-20T15:10:30.544Z,101262.73
2018-11-20T15:13:17.770Z,101266.48
2018-11-20T15:16:04.782Z,101274.17
2018-11-20T15:18:52.144Z,101272.48
2018-11-20T15:21:39.085Z,101265.72
2018-11-20T15:24:26.545Z,101266.12
2018-11-20T15:27:20.937Z,101268.89
2018-11-20T15:29:58.117Z,101274.14
2018-11-20T15:32:45.244Z,101266.95
2018-11-20T15:35:33.789Z,101267.28
2018-11-20T15:38:12.917Z,101262.86
2018-11-20T15:41:04.139Z,101264.15
2018-11-20T15:44:01.602Z,101271.53
2018-11-20T15:46:44.706Z,101269.41
2018-11-20T15:49:42.278Z,101268.05
2018-11-20T15:52:24.994Z,101276.70
2018-11-20T15:55:12.422Z,101283.15
2018-11-20T15:58:16.078Z,101281.67
2018-11-20T16:01:10.343Z,101286.72
2018-11-20T16:04:01.525Z,101299.48
2018-11-20T16:06:47.925Z,101291.52
2018-11-20T16:09:39.548Z,101295.05
2018-11-20T16:12:34.900Z,101307.30
2018-11-20T16:15:21.626Z,101311.28
2018-11-20T16:18:22.299Z,101310.46
2018-11-20T16:21:09.498Z,101318.05
2018-11-20T16:23:56.549Z,101326.17
2018-11-20T16:26:43.960Z,101317.90
2018-11-20T16:29:44.496Z,101319.25
2018-11-20T16:32:31.612Z,101314.30
2018-11-20T16:36:06.850Z,101313.48
2018-11-20T16:38:57.559Z,101321.69
2018-11-20T16:41:48.886Z,101329.86
2018-11-20T16:44:35.685Z,101318.64
2018-11-20T16:47:27.409Z,101320.23
2018-11-20T16:50:08.262Z,101313.17
2018-11-20T16:53:11.572Z,101325.41
2018-11-20T16:56:04.952Z,101332.27
2018-11-20T16:58:51.759Z,101320.03
2018-11-20T17:01:51.320Z,101326.48
2018-11-20T17:04:41.763Z,101329.25
2018-11-20T17:07:32.105Z,101329.05
2018-11-20T17:10:38.323Z,101330.17
2018-11-20T17:13:35.267Z,101329.20
2018-11-20T17:16:31.910Z,101316.86
2018-11-20T17:19:19.744Z,101330.70
2018-11-20T17:22:19.664Z,101324.30
2018-11-20T17:25:06.374Z,101318.46
2018-11-20T17:27:57.044Z,101323.16
2018-11-20T17:30:56.611Z,101325.08
2018-11-20T17:33:56.913Z,101324.67
2018-11-20T17:36:42.045Z,101328.36
2018-11-20T17:39:36.876Z,101325.66
2018-11-20T17:42:25.123Z,101332.36
2018-11-20T17:45:11.624Z,101329.04
2018-11-20T17:48:11.230Z,101329.66
2018-11-20T17:51:05.708Z,101330.86
2018-11-20T17:54:02.488Z,101340.64
2018-11-20T17:56:50.205Z,101332.80
2018-11-20T17:59:36.704Z,101328.15
2018-11-20T18:02:42.877Z,101334.91
2018-11-20T18:05:29.577Z,101334.39
2018-11-20T18:08:35.435Z,101333.88
2018-11-20T18:11:29.105Z,101342.20
2018-11-20T18:14:35.174Z,101335.59
2018-11-20T18:17:37.752Z,101331.22
2018-11-20T18:20:35.390Z,101329.25
2018-11-20T18:23:16.625Z,101333.41
2018-11-20T18:26:07.519Z,101337.01
2018-11-20T18:28:55.436Z,101332.36
2018-11-20T18:31:52.181Z,101341.89
2018-11-20T18:34:44.002Z,101340.48
2018-11-20T18:37:25.289Z,101338.52
2018-11-20T18:40:12.496Z,101343.81
2018-11-20T18:42:53.078Z,101334.09
2018-11-20T18:45:40.791Z,101341.68
2018-11-20T18:48:31.198Z,101345.44
2018-11-20T18:51:22.183Z,101346.64
2018-11-20T18:54:11.782Z,101341.22
2018-11-20T18:56:58.290Z,101336.02
2018-11-20T18:59:44.727Z,101343.93
2018-11-20T19:02:49.119Z,101346.33
2018-11-20T19:05:28.347Z,101345.95
2018-11-20T19:08:16.286Z,101344.54
2018-11-20T19:11:04.120Z,101340.76
2018-11-20T19:13:57.966Z,101341.28
2018-11-20T19:16:44.596Z,101330.39
2018-11-20T19:19:44.417Z,101318.37
2018-11-20T19:22:51.494Z,101328.94
2018-11-20T19:25:54.799Z,101324.45
2018-11-20T19:28:41.689Z,101316.27
2018-11-20T19:31:29.514Z,101315.88
2018-11-20T19:34:17.691Z,101310.77
2018-11-20T19:37:04.025Z,101311.81
2018-11-20T19:40:06.034Z,101308.59
2018-11-20T19:43:06.370Z,101320.86
2018-11-20T19:45:52.644Z,101324.98
2018-11-20T19:48:39.184Z,101333.31
2018-11-20T19:51:25.337Z,101327.84
2018-11-20T19:54:25.016Z,101338.66
2018-11-20T19:57:18.561Z,101341.38
2018-11-20T20:00:08.329Z,101341.99
2018-11-20T20:02:54.854Z,101349.50
2018-11-20T20:05:49.336Z,101359.34
2018-11-20T20:08:43.732Z,101365.88
2018-11-20T20:11:21.012Z,101364.69
2018-11-20T20:14:00.136Z,101370.16
2018-11-20T20:17:05.731Z,101363.50
2018-11-20T20:19:53.641Z,101370.26
2018-11-20T20:22:41.974Z,101375.83
2018-11-20T20:25:47.528Z,101369.48
2018-11-20T20:28:41.437Z,101383.80
2018-11-20T20:31:23.164Z,101381.97
2018-11-20T20:34:14.104Z,101385.05
2018-11-20T20:37:02.451Z,101382.03
2018-11-20T20:39:49.265Z,101380.32
2018-11-20T20:42:35.771Z,101389.26
2018-11-20T20:45:23.803Z,101391.09
2018-11-20T20:48:10.270Z,101395.73
2018-11-20T20:51:02.247Z,101398.88
2018-11-20T20:53:56.112Z,101397.80
2018-11-20T20:56:42.672Z,101400.61
2018-11-20T20:59:31.880Z,101397.31
2018-11-20T21:02:23.561Z,101402.26
2018-11-20T21:05:21.742Z,101402.17
2018-11-20T21:08:23.652Z,101407.69
2018-11-20T21:11:30.937Z,101410.45
2018-11-20T21:14:20.016Z,101403.94
2018-11-20T21:17:13.775Z,101411.61
2018-11-20T21:20:07.193Z,101413.16
2018-11-20T21:22:55.316Z,101411.22
2018-11-20T21:25:57.247Z,101409.87
2018-11-20T21:28:48.670Z,101410.70
2018-11-20T21:31:39.370Z,101410.61
2018-11-20T21:34:39.932Z,101413.88
2018-11-20T21:37:29.478Z,101410.35
2018-11-20T21:40:18.261Z,101411.02
2018-11-20T21:43:09.039Z,101414.92
2018-11-20T21:45:48.270Z,101411.75
2018-11-20T21:48:38.908Z,101405.05
2018-11-20T21:51:38.305Z,101410.09
2018-11-20T21:54:33.225Z,101413.77
2018-11-20T21:57:28.026Z,101422.95
2018-11-20T22:00:23.353Z,101428.30
2018-11-20T22:03:07.763Z,101427.53
2018-11-20T22:05:58.482Z,101432.61
2018-11-20T22:08:45.148Z,101437.41
2018-11-20T22:11:43.118Z,101434.21
2018-11-20T22:14:30.865Z,101440.33
2018-11-20T22:17:18.687Z,101434.34
2018-11-20T22:20:05.131Z,101442.32
2018-11-20T22:22:51.799Z,101445.55
2018-11-20T22:25:48.854Z,101445.70
2018-11-20T22:28:36.558Z,101450.42
2018-11-20T22:31:22.877Z,101448.66
2018-11-20T22:34:10.666Z,101440.00
2018-11-20T22:36:58.495Z,101434.23
2018-11-20T22:39:44.846Z,101436.07
2018-11-20T22:42:38.372Z,101436.11
2018-11-20T22:45:19.768Z,101443.51
2018-11-20T22:48:05.995Z,101444.53
2018-11-20T22:51:11.960Z,101437.49
2018-11-20T22:54:10.543Z,101445.76
2018-11-20T22:56:58.261Z,101456.18
2018-11-20T22:59:48.659Z,101455.48
2018-11-20T23:02:28.897Z,101456.19
2018-11-20T23:05:13.995Z,101455.84
2018-11-20T23:07:56.197Z,101462.81
2018-11-20T23:10:26.014Z,101465.57
2018-11-20T23:12:54.797Z,101462.72
2018-11-20T23:15:23.473Z,101463.98
2018-11-20T23:17:52.169Z,101458.91
2018-11-20T23:20:20.814Z,101458.91
2018-11-20T23:22:49.651Z,101462.96
2018-11-20T23:25:18.357Z,101456.36
2018-11-20T23:27:46.971Z,101459.64
2018-11-20T23:30:16.213Z,101457.89
2018-11-20T23:32:44.897Z,101454.86
2018-11-20T23:35:13.987Z,101456.86
2018-11-20T23:37:43.185Z,101451.73
2018-11-20T23:40:12.994Z,101453.53
2018-11-20T23:42:41.593Z,101461.31
2018-11-20T23:45:12.938Z,101459.75
2018-11-20T23:47:41.665Z,101469.62
2018-11-20T23:50:11.985Z,101472.48
2018-11-20T23:52:40.601Z,101466.33
2018-11-20T23:55:11.857Z,101467.58
2018-11-20T23:57:40.542Z,101467.09
